sensor_id;sensor_type;location;lat;lon;timestamp;P1;durP1;ratioP1;P2;durP2;ratioP2
27794;SDS011;15176;50.844;4.412;2022-07-17T00:00:04;4.18;;;1.40;;
27794;SDS011;15176;50.844;4.412;2022-07-17T00:02:30;3.92;;;1.25;;
27794;SDS011;15176;50.844;4.412;2022-07-17T00:04:55;6.07;;;1.58;;
27794;SDS011;15176;50.844;4.412;2022-07-17T00:07:21;4.05;;;1.30;;
27794;SDS011;15176;50.844;4.412;2022-07-17T00:09:47;3.88;;;1.40;;
27794;SDS011;15176;50.844;4.412;2022-07-17T00:12:13;2.65;;;0.93;;
27794;SDS011;15176;50.844;4.412;2022-07-17T00:14:38;4.30;;;1.20;;
27794;SDS011;15176;50.844;4.412;2022-07-17T00:17:04;5.40;;;1.27;;
27794;SDS011;15176;50.844;4.412;2022-07-17T00:19:30;5.60;;;1.10;;
27794;SDS011;15176;50.844;4.412;2022-07-17T00:21:57;2.78;;;1.00;;
27794;SDS011;15176;50.844;4.412;2022-07-17T00:24:22;4.47;;;1.20;;
27794;SDS011;15176;50.844;4.412;2022-07-17T00:26:49;5.07;;;1.38;;
27794;SDS011;15176;50.844;4.412;2022-07-17T00:29:15;3.08;;;1.30;;
27794;SDS011;15176;50.844;4.412;2022-07-17T00:31:41;3.97;;;1.27;;
27794;SDS011;15176;50.844;4.412;2022-07-17T00:34:08;4.90;;;1.30;;
27794;SDS011;15176;50.844;4.412;2022-07-17T00:36:34;3.50;;;1.17;;
27794;SDS011;15176;50.844;4.412;2022-07-17T00:38:59;4.35;;;1.40;;
27794;SDS011;15176;50.844;4.412;2022-07-17T00:41:25;6.97;;;1.30;;
27794;SDS011;15176;50.844;4.412;2022-07-17T00:43:51;3.33;;;1.15;;
27794;SDS011;15176;50.844;4.412;2022-07-17T00:46:17;4.80;;;1.50;;
27794;SDS011;15176;50.844;4.412;2022-07-17T00:48:42;3.88;;;1.40;;
27794;SDS011;15176;50.844;4.412;2022-07-17T00:51:08;5.05;;;1.13;;
27794;SDS011;15176;50.844;4.412;2022-07-17T00:53:35;3.78;;;1.10;;
27794;SDS011;15176;50.844;4.412;2022-07-17T00:56:02;2.95;;;1.17;;
27794;SDS011;15176;50.844;4.412;2022-07-17T00:58:29;4.53;;;1.30;;
27794;SDS011;15176;50.844;4.412;2022-07-17T01:00:58;7.40;;;1.52;;
27794;SDS011;15176;50.844;4.412;2022-07-17T01:03:24;3.63;;;1.23;;
27794;SDS011;15176;50.844;4.412;2022-07-17T01:05:50;2.90;;;1.00;;
27794;SDS011;15176;50.844;4.412;2022-07-17T01:08:17;5.88;;;1.48;;
27794;SDS011;15176;50.844;4.412;2022-07-17T01:10:43;13.07;;;1.70;;
27794;SDS011;15176;50.844;4.412;2022-07-17T01:13:08;2.75;;;0.82;;
27794;SDS011;15176;50.844;4.412;2022-07-17T01:15:38;5.07;;;1.65;;
27794;SDS011;15176;50.844;4.412;2022-07-17T01:18:09;4.40;;;1.40;;
27794;SDS011;15176;50.844;4.412;2022-07-17T01:20:36;4.38;;;1.23;;
27794;SDS011;15176;50.844;4.412;2022-07-17T01:23:04;5.30;;;1.42;;
27794;SDS011;15176;50.844;4.412;2022-07-17T01:25:30;3.60;;;1.25;;
27794;SDS011;15176;50.844;4.412;2022-07-17T01:27:56;4.75;;;1.55;;
27794;SDS011;15176;50.844;4.412;2022-07-17T01:30:22;4.93;;;1.50;;
27794;SDS011;15176;50.844;4.412;2022-07-17T01:32:48;4.75;;;1.40;;
27794;SDS011;15176;50.844;4.412;2022-07-17T01:35:14;5.75;;;1.83;;
27794;SDS011;15176;50.844;4.412;2022-07-17T01:37:40;5.60;;;1.40;;
27794;SDS011;15176;50.844;4.412;2022-07-17T01:40:08;3.67;;;1.38;;
27794;SDS011;15176;50.844;4.412;2022-07-17T01:42:38;2.85;;;1.10;;
27794;SDS011;15176;50.844;4.412;2022-07-17T01:45:04;6.28;;;1.55;;
27794;SDS011;15176;50.844;4.412;2022-07-17T01:47:30;7.07;;;1.73;;
27794;SDS011;15176;50.844;4.412;2022-07-17T01:49:56;4.97;;;1.30;;
27794;SDS011;15176;50.844;4.412;2022-07-17T01:52:23;9.40;;;1.70;;
27794;SDS011;15176;50.844;4.412;2022-07-17T01:54:49;3.63;;;1.17;;
27794;SDS011;15176;50.844;4.412;2022-07-17T01:57:15;5.70;;;1.63;;
27794;SDS011;15176;50.844;4.412;2022-07-17T01:59:41;7.88;;;1.70;;
27794;SDS011;15176;50.844;4.412;2022-07-17T02:02:07;4.97;;;1.40;;
27794;SDS011;15176;50.844;4.412;2022-07-17T02:04:34;8.88;;;1.67;;
27794;SDS011;15176;50.844;4.412;2022-07-17T02:07:01;4.53;;;1.60;;
27794;SDS011;15176;50.844;4.412;2022-07-17T02:09:28;3.85;;;1.13;;
27794;SDS011;15176;50.844;4.412;2022-07-17T02:11:53;6.88;;;1.55;;
27794;SDS011;15176;50.844;4.412;2022-07-17T02:14:19;5.30;;;1.73;;
27794;SDS011;15176;50.844;4.412;2022-07-17T02:16:45;5.57;;;1.83;;
27794;SDS011;15176;50.844;4.412;2022-07-17T02:19:11;5.45;;;1.50;;
27794;SDS011;15176;50.844;4.412;2022-07-17T02:21:37;5.78;;;1.60;;
27794;SDS011;15176;50.844;4.412;2022-07-17T02:24:03;5.18;;;1.42;;
27794;SDS011;15176;50.844;4.412;2022-07-17T02:26:29;4.03;;;1.30;;
27794;SDS011;15176;50.844;4.412;2022-07-17T02:28:54;7.18;;;1.50;;
27794;SDS011;15176;50.844;4.412;2022-07-17T02:31:20;4.85;;;1.30;;
27794;SDS011;15176;50.844;4.412;2022-07-17T02:33:46;7.65;;;1.75;;
27794;SDS011;15176;50.844;4.412;2022-07-17T02:36:12;6.05;;;1.85;;
27794;SDS011;15176;50.844;4.412;2022-07-17T02:38:38;4.70;;;1.67;;
27794;SDS011;15176;50.844;4.412;2022-07-17T02:41:03;4.50;;;1.30;;
27794;SDS011;15176;50.844;4.412;2022-07-17T02:43:29;3.55;;;1.30;;
27794;SDS011;15176;50.844;4.412;2022-07-17T02:45:55;2.83;;;0.88;;
27794;SDS011;15176;50.844;4.412;2022-07-17T02:48:20;4.07;;;1.30;;
27794;SDS011;15176;50.844;4.412;2022-07-17T02:50:46;6.05;;;1.48;;
27794;SDS011;15176;50.844;4.412;2022-07-17T02:53:13;6.40;;;1.38;;
27794;SDS011;15176;50.844;4.412;2022-07-17T02:55:38;3.13;;;1.00;;
27794;SDS011;15176;50.844;4.412;2022-07-17T02:58:04;5.30;;;1.58;;
27794;SDS011;15176;50.844;4.412;2022-07-17T03:00:31;5.20;;;1.92;;
27794;SDS011;15176;50.844;4.412;2022-07-17T03:02:57;8.23;;;1.33;;
27794;SDS011;15176;50.844;4.412;2022-07-17T03:05:23;4.93;;;1.50;;
27794;SDS011;15176;50.844;4.412;2022-07-17T03:07:48;5.82;;;1.45;;
27794;SDS011;15176;50.844;4.412;2022-07-17T03:10:14;4.95;;;1.40;;
27794;SDS011;15176;50.844;4.412;2022-07-17T03:12:41;5.03;;;1.48;;
27794;SDS011;15176;50.844;4.412;2022-07-17T03:15:07;6.97;;;1.50;;
27794;SDS011;15176;50.844;4.412;2022-07-17T03:17:34;4.13;;;1.48;;
27794;SDS011;15176;50.844;4.412;2022-07-17T03:20:00;6.93;;;1.65;;
27794;SDS011;15176;50.844;4.412;2022-07-17T03:22:26;7.47;;;2.08;;
27794;SDS011;15176;50.844;4.412;2022-07-17T03:24:52;5.22;;;1.35;;
27794;SDS011;15176;50.844;4.412;2022-07-17T03:27:17;4.47;;;1.60;;
27794;SDS011;15176;50.844;4.412;2022-07-17T03:29:43;6.05;;;1.60;;
27794;SDS011;15176;50.844;4.412;2022-07-17T03:32:09;3.28;;;1.48;;
27794;SDS011;15176;50.844;4.412;2022-07-17T03:34:35;4.95;;;1.63;;
27794;SDS011;15176;50.844;4.412;2022-07-17T03:37:01;5.43;;;1.73;;
27794;SDS011;15176;50.844;4.412;2022-07-17T03:39:28;4.57;;;1.20;;
27794;SDS011;15176;50.844;4.412;2022-07-17T03:41:54;4.43;;;1.63;;
27794;SDS011;15176;50.844;4.412;2022-07-17T03:44:20;4.63;;;1.48;;
27794;SDS011;15176;50.844;4.412;2022-07-17T03:46:46;4.22;;;1.17;;
27794;SDS011;15176;50.844;4.412;2022-07-17T03:49:11;4.03;;;1.10;;
27794;SDS011;15176;50.844;4.412;2022-07-17T03:51:37;6.18;;;1.70;;
27794;SDS011;15176;50.844;4.412;2022-07-17T03:54:03;5.97;;;1.52;;
27794;SDS011;15176;50.844;4.412;2022-07-17T03:56:28;7.57;;;2.22;;
27794;SDS011;15176;50.844;4.412;2022-07-17T03:58:54;3.55;;;1.10;;
27794;SDS011;15176;50.844;4.412;2022-07-17T04:01:20;5.15;;;1.25;;
27794;SDS011;15176;50.844;4.412;2022-07-17T04:03:45;6.88;;;1.60;;
27794;SDS011;15176;50.844;4.412;2022-07-17T04:06:11;5.38;;;1.95;;
27794;SDS011;15176;50.844;4.412;2022-07-17T04:08:36;4.28;;;1.40;;
27794;SDS011;15176;50.844;4.412;2022-07-17T04:11:02;5.57;;;1.85;;
27794;SDS011;15176;50.844;4.412;2022-07-17T04:13:28;5.90;;;1.70;;
27794;SDS011;15176;50.844;4.412;2022-07-17T04:15:53;7.63;;;1.85;;
27794;SDS011;15176;50.844;4.412;2022-07-17T04:18:26;6.97;;;1.90;;
27794;SDS011;15176;50.844;4.412;2022-07-17T04:20:56;5.97;;;1.65;;
27794;SDS011;15176;50.844;4.412;2022-07-17T04:23:23;4.75;;;1.63;;
27794;SDS011;15176;50.844;4.412;2022-07-17T04:25:49;4.32;;;1.90;;
27794;SDS011;15176;50.844;4.412;2022-07-17T04:28:15;6.72;;;1.52;;
27794;SDS011;15176;50.844;4.412;2022-07-17T04:30:41;6.32;;;2.13;;
27794;SDS011;15176;50.844;4.412;2022-07-17T04:33:07;8.02;;;1.75;;
27794;SDS011;15176;50.844;4.412;2022-07-17T04:35:33;5.13;;;1.75;;
27794;SDS011;15176;50.844;4.412;2022-07-17T04:37:59;6.75;;;2.20;;
27794;SDS011;15176;50.844;4.412;2022-07-17T04:40:25;4.22;;;1.73;;
27794;SDS011;15176;50.844;4.412;2022-07-17T04:42:51;6.35;;;1.70;;
27794;SDS011;15176;50.844;4.412;2022-07-17T04:45:17;6.18;;;1.90;;
27794;SDS011;15176;50.844;4.412;2022-07-17T04:47:42;5.38;;;2.10;;
27794;SDS011;15176;50.844;4.412;2022-07-17T04:50:08;3.85;;;1.33;;
27794;SDS011;15176;50.844;4.412;2022-07-17T04:52:35;3.70;;;1.40;;
27794;SDS011;15176;50.844;4.412;2022-07-17T04:55:01;6.38;;;1.90;;
27794;SDS011;15176;50.844;4.412;2022-07-17T04:57:26;7.43;;;1.92;;
27794;SDS011;15176;50.844;4.412;2022-07-17T04:59:52;4.82;;;1.70;;
27794;SDS011;15176;50.844;4.412;2022-07-17T05:02:18;6.15;;;1.90;;
27794;SDS011;15176;50.844;4.412;2022-07-17T05:04:44;8.45;;;1.98;;
27794;SDS011;15176;50.844;4.412;2022-07-17T05:07:10;7.93;;;1.90;;
27794;SDS011;15176;50.844;4.412;2022-07-17T05:09:35;3.55;;;1.70;;
27794;SDS011;15176;50.844;4.412;2022-07-17T05:12:01;8.32;;;2.15;;
27794;SDS011;15176;50.844;4.412;2022-07-17T05:14:26;5.75;;;1.83;;
27794;SDS011;15176;50.844;4.412;2022-07-17T05:16:52;5.40;;;1.88;;
27794;SDS011;15176;50.844;4.412;2022-07-17T05:19:18;5.88;;;2.00;;
27794;SDS011;15176;50.844;4.412;2022-07-17T05:21:43;5.70;;;1.70;;
27794;SDS011;15176;50.844;4.412;2022-07-17T05:24:09;4.15;;;1.77;;
27794;SDS011;15176;50.844;4.412;2022-07-17T05:26:35;8.73;;;1.98;;
27794;SDS011;15176;50.844;4.412;2022-07-17T05:29:01;6.68;;;2.13;;
27794;SDS011;15176;50.844;4.412;2022-07-17T05:31:27;8.40;;;2.13;;
27794;SDS011;15176;50.844;4.412;2022-07-17T05:33:52;7.00;;;2.03;;
27794;SDS011;15176;50.844;4.412;2022-07-17T05:36:18;5.20;;;1.40;;
27794;SDS011;15176;50.844;4.412;2022-07-17T05:38:43;5.03;;;1.63;;
27794;SDS011;15176;50.844;4.412;2022-07-17T05:41:09;4.53;;;1.80;;
27794;SDS011;15176;50.844;4.412;2022-07-17T05:43:35;5.35;;;1.77;;
27794;SDS011;15176;50.844;4.412;2022-07-17T05:46:00;6.05;;;1.70;;
27794;SDS011;15176;50.844;4.412;2022-07-17T05:48:26;9.05;;;1.63;;
27794;SDS011;15176;50.844;4.412;2022-07-17T05:50:52;4.10;;;1.80;;
27794;SDS011;15176;50.844;4.412;2022-07-17T05:53:18;7.10;;;1.83;;
27794;SDS011;15176;50.844;4.412;2022-07-17T05:55:44;4.72;;;1.58;;
27794;SDS011;15176;50.844;4.412;2022-07-17T05:58:09;6.43;;;1.77;;
27794;SDS011;15176;50.844;4.412;2022-07-17T06:00:35;5.28;;;1.83;;
27794;SDS011;15176;50.844;4.412;2022-07-17T06:03:02;5.88;;;1.70;;
27794;SDS011;15176;50.844;4.412;2022-07-17T06:05:28;8.10;;;1.45;;
27794;SDS011;15176;50.844;4.412;2022-07-17T06:07:54;5.88;;;1.50;;
27794;SDS011;15176;50.844;4.412;2022-07-17T06:10:21;4.78;;;1.60;;
27794;SDS011;15176;50.844;4.412;2022-07-17T06:12:48;6.97;;;1.90;;
27794;SDS011;15176;50.844;4.412;2022-07-17T06:15:15;5.40;;;2.10;;
27794;SDS011;15176;50.844;4.412;2022-07-17T06:17:41;4.97;;;1.60;;
27794;SDS011;15176;50.844;4.412;2022-07-17T06:20:07;7.32;;;1.40;;
27794;SDS011;15176;50.844;4.412;2022-07-17T06:22:33;8.07;;;2.03;;
27794;SDS011;15176;50.844;4.412;2022-07-17T06:24:59;5.35;;;1.50;;
27794;SDS011;15176;50.844;4.412;2022-07-17T06:27:25;4.60;;;1.45;;
27794;SDS011;15176;50.844;4.412;2022-07-17T06:29:50;4.10;;;1.60;;
27794;SDS011;15176;50.844;4.412;2022-07-17T06:32:16;6.88;;;1.60;;
27794;SDS011;15176;50.844;4.412;2022-07-17T06:34:42;4.38;;;1.40;;
27794;SDS011;15176;50.844;4.412;2022-07-17T06:37:08;5.05;;;1.80;;
27794;SDS011;15176;50.844;4.412;2022-07-17T06:39:33;6.90;;;1.58;;
27794;SDS011;15176;50.844;4.412;2022-07-17T06:41:59;6.05;;;1.60;;
27794;SDS011;15176;50.844;4.412;2022-07-17T06:44:25;7.05;;;1.58;;
27794;SDS011;15176;50.844;4.412;2022-07-17T06:46:51;5.30;;;1.50;;
27794;SDS011;15176;50.844;4.412;2022-07-17T06:49:26;5.70;;;1.70;;
27794;SDS011;15176;50.844;4.412;2022-07-17T06:51:52;7.80;;;1.60;;
27794;SDS011;15176;50.844;4.412;2022-07-17T06:54:17;4.80;;;1.67;;
27794;SDS011;15176;50.844;4.412;2022-07-17T06:56:43;6.65;;;1.60;;
27794;SDS011;15176;50.844;4.412;2022-07-17T06:59:09;4.88;;;1.33;;
27794;SDS011;15176;50.844;4.412;2022-07-17T07:01:35;5.15;;;1.33;;
27794;SDS011;15176;50.844;4.412;2022-07-17T07:04:01;5.10;;;1.30;;
27794;SDS011;15176;50.844;4.412;2022-07-17T07:06:29;7.22;;;1.45;;
27794;SDS011;15176;50.844;4.412;2022-07-17T07:08:55;6.80;;;1.83;;
27794;SDS011;15176;50.844;4.412;2022-07-17T07:11:22;4.93;;;1.30;;
27794;SDS011;15176;50.844;4.412;2022-07-17T07:13:48;5.63;;;1.10;;
27794;SDS011;15176;50.844;4.412;2022-07-17T07:16:14;7.78;;;1.35;;
27794;SDS011;15176;50.844;4.412;2022-07-17T07:18:39;3.95;;;1.15;;
27794;SDS011;15176;50.844;4.412;2022-07-17T07:21:05;7.07;;;1.48;;
27794;SDS011;15176;50.844;4.412;2022-07-17T07:23:30;6.88;;;1.65;;
27794;SDS011;15176;50.844;4.412;2022-07-17T07:25:56;5.65;;;1.23;;
27794;SDS011;15176;50.844;4.412;2022-07-17T07:28:22;4.93;;;1.20;;
27794;SDS011;15176;50.844;4.412;2022-07-17T07:30:48;9.20;;;1.90;;
27794;SDS011;15176;50.844;4.412;2022-07-17T07:33:13;4.75;;;1.25;;
27794;SDS011;15176;50.844;4.412;2022-07-17T07:35:41;7.00;;;1.48;;
27794;SDS011;15176;50.844;4.412;2022-07-17T07:38:07;5.15;;;1.45;;
27794;SDS011;15176;50.844;4.412;2022-07-17T07:40:33;7.93;;;1.50;;
27794;SDS011;15176;50.844;4.412;2022-07-17T07:42:59;5.43;;;1.30;;
27794;SDS011;15176;50.844;4.412;2022-07-17T07:45:25;5.22;;;1.23;;
27794;SDS011;15176;50.844;4.412;2022-07-17T07:47:51;4.80;;;1.25;;
27794;SDS011;15176;50.844;4.412;2022-07-17T07:50:17;5.57;;;1.30;;
27794;SDS011;15176;50.844;4.412;2022-07-17T07:52:44;6.65;;;1.65;;
27794;SDS011;15176;50.844;4.412;2022-07-17T07:55:10;5.75;;;1.27;;
27794;SDS011;15176;50.844;4.412;2022-07-17T07:57:37;4.95;;;1.35;;
27794;SDS011;15176;50.844;4.412;2022-07-17T08:00:06;5.68;;;1.45;;
27794;SDS011;15176;50.844;4.412;2022-07-17T08:02:33;4.97;;;1.17;;
27794;SDS011;15176;50.844;4.412;2022-07-17T08:04:59;8.73;;;1.52;;
27794;SDS011;15176;50.844;4.412;2022-07-17T08:07:26;6.57;;;1.15;;
27794;SDS011;15176;50.844;4.412;2022-07-17T08:09:52;4.68;;;1.10;;
27794;SDS011;15176;50.844;4.412;2022-07-17T08:12:18;6.70;;;1.30;;
27794;SDS011;15176;50.844;4.412;2022-07-17T08:14:44;6.82;;;1.48;;
27794;SDS011;15176;50.844;4.412;2022-07-17T08:17:10;5.43;;;1.30;;
27794;SDS011;15176;50.844;4.412;2022-07-17T08:19:35;4.95;;;1.17;;
27794;SDS011;15176;50.844;4.412;2022-07-17T08:22:01;5.07;;;1.20;;
27794;SDS011;15176;50.844;4.412;2022-07-17T08:24:27;4.57;;;1.10;;
27794;SDS011;15176;50.844;4.412;2022-07-17T08:26:52;5.57;;;1.50;;
27794;SDS011;15176;50.844;4.412;2022-07-17T08:29:18;4.82;;;1.17;;
27794;SDS011;15176;50.844;4.412;2022-07-17T08:31:43;4.68;;;1.30;;
27794;SDS011;15176;50.844;4.412;2022-07-17T08:34:09;4.65;;;1.23;;
27794;SDS011;15176;50.844;4.412;2022-07-17T08:36:35;4.28;;;1.20;;
27794;SDS011;15176;50.844;4.412;2022-07-17T08:39:01;6.60;;;1.30;;
27794;SDS011;15176;50.844;4.412;2022-07-17T08:41:28;5.60;;;1.30;;
27794;SDS011;15176;50.844;4.412;2022-07-17T08:43:54;7.20;;;1.50;;
27794;SDS011;15176;50.844;4.412;2022-07-17T08:46:21;6.80;;;1.50;;
27794;SDS011;15176;50.844;4.412;2022-07-17T08:48:50;4.85;;;1.50;;
27794;SDS011;15176;50.844;4.412;2022-07-17T08:51:21;6.40;;;1.30;;
27794;SDS011;15176;50.844;4.412;2022-07-17T08:53:49;2.97;;;1.15;;
27794;SDS011;15176;50.844;4.412;2022-07-17T08:56:14;6.15;;;1.48;;
27794;SDS011;15176;50.844;4.412;2022-07-17T08:58:40;4.63;;;1.33;;
27794;SDS011;15176;50.844;4.412;2022-07-17T09:01:06;7.10;;;1.55;;
27794;SDS011;15176;50.844;4.412;2022-07-17T09:03:32;4.35;;;1.10;;
27794;SDS011;15176;50.844;4.412;2022-07-17T09:05:57;4.75;;;1.20;;
27794;SDS011;15176;50.844;4.412;2022-07-17T09:08:23;7.00;;;1.38;;
27794;SDS011;15176;50.844;4.412;2022-07-17T09:10:51;8.00;;;1.40;;
27794;SDS011;15176;50.844;4.412;2022-07-17T09:13:25;4.65;;;1.10;;
27794;SDS011;15176;50.844;4.412;2022-07-17T09:15:55;4.18;;;1.13;;
27794;SDS011;15176;50.844;4.412;2022-07-17T09:18:22;7.70;;;1.50;;
27794;SDS011;15176;50.844;4.412;2022-07-17T09:20:55;5.25;;;1.50;;
27794;SDS011;15176;50.844;4.412;2022-07-17T09:23:23;5.28;;;1.30;;
27794;SDS011;15176;50.844;4.412;2022-07-17T09:25:51;4.22;;;1.30;;
27794;SDS011;15176;50.844;4.412;2022-07-17T09:28:19;4.78;;;1.27;;
27794;SDS011;15176;50.844;4.412;2022-07-17T09:30:48;6.28;;;1.40;;
27794;SDS011;15176;50.844;4.412;2022-07-17T09:33:21;4.68;;;1.08;;
27794;SDS011;15176;50.844;4.412;2022-07-17T09:38:32;5.70;;;1.20;;
27794;SDS011;15176;50.844;4.412;2022-07-17T09:41:02;7.47;;;1.20;;
27794;SDS011;15176;50.844;4.412;2022-07-17T09:43:59;4.97;;;1.45;;
27794;SDS011;15176;50.844;4.412;2022-07-17T09:46:28;3.85;;;1.30;;
27794;SDS011;15176;50.844;4.412;2022-07-17T09:48:56;3.42;;;1.20;;
27794;SDS011;15176;50.844;4.412;2022-07-17T09:51:27;7.90;;;1.45;;
27794;SDS011;15176;50.844;4.412;2022-07-17T09:53:59;3.95;;;1.23;;
27794;SDS011;15176;50.844;4.412;2022-07-17T09:56:31;7.18;;;1.50;;
27794;SDS011;15176;50.844;4.412;2022-07-17T09:59:03;3.60;;;1.20;;
27794;SDS011;15176;50.844;4.412;2022-07-17T10:01:37;6.88;;;1.77;;
27794;SDS011;15176;50.844;4.412;2022-07-17T10:04:04;5.72;;;1.27;;
27794;SDS011;15176;50.844;4.412;2022-07-17T10:06:30;5.30;;;1.23;;
27794;SDS011;15176;50.844;4.412;2022-07-17T10:08:57;4.03;;;1.30;;
27794;SDS011;15176;50.844;4.412;2022-07-17T10:11:24;4.35;;;1.58;;
27794;SDS011;15176;50.844;4.412;2022-07-17T10:13:55;5.60;;;2.15;;
27794;SDS011;15176;50.844;4.412;2022-07-17T10:16:27;5.82;;;1.52;;
27794;SDS011;15176;50.844;4.412;2022-07-17T10:18:58;4.85;;;1.27;;
27794;SDS011;15176;50.844;4.412;2022-07-17T10:21:27;3.65;;;1.20;;
27794;SDS011;15176;50.844;4.412;2022-07-17T10:29:01;5.93;;;1.45;;
27794;SDS011;15176;50.844;4.412;2022-07-17T10:31:30;6.03;;;1.50;;
27794;SDS011;15176;50.844;4.412;2022-07-17T10:33:56;5.50;;;1.50;;
27794;SDS011;15176;50.844;4.412;2022-07-17T10:36:36;4.03;;;1.40;;
27794;SDS011;15176;50.844;4.412;2022-07-17T10:39:15;6.50;;;1.45;;
27794;SDS011;15176;50.844;4.412;2022-07-17T10:41:42;4.30;;;1.33;;
27794;SDS011;15176;50.844;4.412;2022-07-17T10:44:26;3.95;;;1.40;;
27794;SDS011;15176;50.844;4.412;2022-07-17T10:46:53;5.55;;;1.60;;
27794;SDS011;15176;50.844;4.412;2022-07-17T10:49:20;3.78;;;1.70;;
27794;SDS011;15176;50.844;4.412;2022-07-17T10:51:46;4.95;;;1.60;;
27794;SDS011;15176;50.844;4.412;2022-07-17T10:54:12;4.90;;;1.75;;
27794;SDS011;15176;50.844;4.412;2022-07-17T10:56:38;4.53;;;1.40;;
27794;SDS011;15176;50.844;4.412;2022-07-17T10:59:09;3.00;;;1.20;;
27794;SDS011;15176;50.844;4.412;2022-07-17T11:01:35;4.10;;;1.63;;
27794;SDS011;15176;50.844;4.412;2022-07-17T11:04:01;4.90;;;1.92;;
27794;SDS011;15176;50.844;4.412;2022-07-17T11:06:36;4.57;;;1.90;;
27794;SDS011;15176;50.844;4.412;2022-07-17T11:09:07;5.93;;;1.90;;
27794;SDS011;15176;50.844;4.412;2022-07-17T11:11:43;3.75;;;1.70;;
27794;SDS011;15176;50.844;4.412;2022-07-17T11:14:30;3.85;;;1.77;;
27794;SDS011;15176;50.844;4.412;2022-07-17T11:16:58;5.22;;;1.70;;
27794;SDS011;15176;50.844;4.412;2022-07-17T11:21:57;6.85;;;2.05;;
27794;SDS011;15176;50.844;4.412;2022-07-17T11:24:24;6.53;;;2.53;;
27794;SDS011;15176;50.844;4.412;2022-07-17T11:26:59;5.15;;;1.90;;
27794;SDS011;15176;50.844;4.412;2022-07-17T11:29:25;7.05;;;1.90;;
27794;SDS011;15176;50.844;4.412;2022-07-17T11:31:54;5.53;;;2.10;;
27794;SDS011;15176;50.844;4.412;2022-07-17T11:34:21;6.03;;;2.08;;
27794;SDS011;15176;50.844;4.412;2022-07-17T11:36:50;6.95;;;2.17;;
27794;SDS011;15176;50.844;4.412;2022-07-17T11:39:15;6.45;;;2.15;;
27794;SDS011;15176;50.844;4.412;2022-07-17T11:41:47;6.85;;;1.95;;
27794;SDS011;15176;50.844;4.412;2022-07-17T11:44:24;5.18;;;2.20;;
27794;SDS011;15176;50.844;4.412;2022-07-17T11:46:50;7.07;;;2.28;;
27794;SDS011;15176;50.844;4.412;2022-07-17T11:49:26;6.00;;;2.28;;
27794;SDS011;15176;50.844;4.412;2022-07-17T11:51:57;6.72;;;2.45;;
27794;SDS011;15176;50.844;4.412;2022-07-17T11:54:25;5.18;;;1.85;;
27794;SDS011;15176;50.844;4.412;2022-07-17T11:56:54;4.97;;;2.30;;
27794;SDS011;15176;50.844;4.412;2022-07-17T11:59:23;7.13;;;2.45;;
27794;SDS011;15176;50.844;4.412;2022-07-17T12:01:54;5.22;;;2.00;;
27794;SDS011;15176;50.844;4.412;2022-07-17T12:04:19;5.32;;;2.13;;
27794;SDS011;15176;50.844;4.412;2022-07-17T12:06:46;4.68;;;1.83;;
27794;SDS011;15176;50.844;4.412;2022-07-17T12:09:28;4.03;;;2.00;;
27794;SDS011;15176;50.844;4.412;2022-07-17T12:11:58;4.57;;;1.85;;
27794;SDS011;15176;50.844;4.412;2022-07-17T12:14:25;5.50;;;2.30;;
27794;SDS011;15176;50.844;4.412;2022-07-17T12:16:51;4.88;;;2.10;;
27794;SDS011;15176;50.844;4.412;2022-07-17T12:19:18;8.45;;;2.80;;
27794;SDS011;15176;50.844;4.412;2022-07-17T12:24:21;3.85;;;1.90;;
27794;SDS011;15176;50.844;4.412;2022-07-17T12:26:56;4.15;;;2.00;;
27794;SDS011;15176;50.844;4.412;2022-07-17T12:29:22;3.90;;;1.98;;
27794;SDS011;15176;50.844;4.412;2022-07-17T12:31:59;4.88;;;2.00;;
27794;SDS011;15176;50.844;4.412;2022-07-17T12:34:29;4.93;;;1.90;;
27794;SDS011;15176;50.844;4.412;2022-07-17T12:36:55;5.18;;;2.00;;
27794;SDS011;15176;50.844;4.412;2022-07-17T12:39:21;6.95;;;2.33;;
27794;SDS011;15176;50.844;4.412;2022-07-17T12:41:46;7.53;;;2.00;;
27794;SDS011;15176;50.844;4.412;2022-07-17T12:44:12;5.80;;;2.20;;
27794;SDS011;15176;50.844;4.412;2022-07-17T12:46:38;4.57;;;2.10;;
27794;SDS011;15176;50.844;4.412;2022-07-17T12:49:03;6.30;;;2.30;;
27794;SDS011;15176;50.844;4.412;2022-07-17T12:51:29;6.10;;;1.90;;
27794;SDS011;15176;50.844;4.412;2022-07-17T12:53:56;6.70;;;2.42;;
27794;SDS011;15176;50.844;4.412;2022-07-17T12:56:22;5.25;;;2.13;;
27794;SDS011;15176;50.844;4.412;2022-07-17T12:58:48;7.53;;;2.22;;
27794;SDS011;15176;50.844;4.412;2022-07-17T13:01:14;4.65;;;2.15;;
27794;SDS011;15176;50.844;4.412;2022-07-17T13:03:40;5.30;;;2.15;;
27794;SDS011;15176;50.844;4.412;2022-07-17T13:06:06;4.82;;;2.20;;
27794;SDS011;15176;50.844;4.412;2022-07-17T13:08:32;7.75;;;2.15;;
27794;SDS011;15176;50.844;4.412;2022-07-17T13:10:58;6.15;;;2.35;;
27794;SDS011;15176;50.844;4.412;2022-07-17T13:13:23;5.47;;;2.20;;
27794;SDS011;15176;50.844;4.412;2022-07-17T13:15:49;6.03;;;2.10;;
27794;SDS011;15176;50.844;4.412;2022-07-17T13:18:15;3.88;;;1.88;;
27794;SDS011;15176;50.844;4.412;2022-07-17T13:20:40;5.53;;;1.90;;
27794;SDS011;15176;50.844;4.412;2022-07-17T13:23:06;5.43;;;1.90;;
27794;SDS011;15176;50.844;4.412;2022-07-17T13:25:32;6.53;;;2.20;;
27794;SDS011;15176;50.844;4.412;2022-07-17T13:27:58;4.95;;;2.00;;
27794;SDS011;15176;50.844;4.412;2022-07-17T13:30:24;3.35;;;1.60;;
27794;SDS011;15176;50.844;4.412;2022-07-17T13:32:51;4.80;;;1.70;;
27794;SDS011;15176;50.844;4.412;2022-07-17T13:35:18;5.35;;;2.20;;
27794;SDS011;15176;50.844;4.412;2022-07-17T13:37:44;4.78;;;1.88;;
27794;SDS011;15176;50.844;4.412;2022-07-17T13:40:10;7.68;;;1.80;;
27794;SDS011;15176;50.844;4.412;2022-07-17T13:42:36;6.60;;;1.65;;
27794;SDS011;15176;50.844;4.412;2022-07-17T13:45:02;4.22;;;1.70;;
27794;SDS011;15176;50.844;4.412;2022-07-17T13:47:28;4.35;;;2.10;;
27794;SDS011;15176;50.844;4.412;2022-07-17T13:49:54;6.18;;;2.00;;
27794;SDS011;15176;50.844;4.412;2022-07-17T13:52:20;4.03;;;1.70;;
27794;SDS011;15176;50.844;4.412;2022-07-17T13:54:46;3.97;;;1.58;;
27794;SDS011;15176;50.844;4.412;2022-07-17T13:57:12;3.35;;;1.52;;
27794;SDS011;15176;50.844;4.412;2022-07-17T13:59:37;5.78;;;2.10;;
27794;SDS011;15176;50.844;4.412;2022-07-17T14:02:03;4.35;;;2.03;;
27794;SDS011;15176;50.844;4.412;2022-07-17T14:04:29;4.22;;;2.00;;
27794;SDS011;15176;50.844;4.412;2022-07-17T14:06:55;4.22;;;1.98;;
27794;SDS011;15176;50.844;4.412;2022-07-17T14:09:21;4.63;;;1.98;;
27794;SDS011;15176;50.844;4.412;2022-07-17T14:11:46;4.55;;;1.80;;
27794;SDS011;15176;50.844;4.412;2022-07-17T14:14:12;4.10;;;1.75;;
27794;SDS011;15176;50.844;4.412;2022-07-17T14:16:38;3.42;;;1.50;;
27794;SDS011;15176;50.844;4.412;2022-07-17T14:19:04;4.05;;;1.70;;
27794;SDS011;15176;50.844;4.412;2022-07-17T14:21:31;4.43;;;1.55;;
27794;SDS011;15176;50.844;4.412;2022-07-17T14:23:58;4.00;;;1.70;;
27794;SDS011;15176;50.844;4.412;2022-07-17T14:26:25;7.38;;;1.70;;
27794;SDS011;15176;50.844;4.412;2022-07-17T14:28:51;3.47;;;1.70;;
27794;SDS011;15176;50.844;4.412;2022-07-17T14:31:16;3.53;;;1.83;;
27794;SDS011;15176;50.844;4.412;2022-07-17T14:33:42;4.22;;;2.08;;
27794;SDS011;15176;50.844;4.412;2022-07-17T14:36:09;4.35;;;1.85;;
27794;SDS011;15176;50.844;4.412;2022-07-17T14:38:35;4.05;;;1.60;;
27794;SDS011;15176;50.844;4.412;2022-07-17T14:41:01;5.15;;;1.73;;
27794;SDS011;15176;50.844;4.412;2022-07-17T14:43:28;3.67;;;1.67;;
27794;SDS011;15176;50.844;4.412;2022-07-17T14:45:54;4.15;;;1.70;;
27794;SDS011;15176;50.844;4.412;2022-07-17T14:48:20;6.97;;;1.63;;
27794;SDS011;15176;50.844;4.412;2022-07-17T14:50:47;2.92;;;1.30;;
27794;SDS011;15176;50.844;4.412;2022-07-17T14:53:13;3.30;;;1.40;;
27794;SDS011;15176;50.844;4.412;2022-07-17T14:55:38;3.63;;;1.50;;
27794;SDS011;15176;50.844;4.412;2022-07-17T14:58:04;3.42;;;1.58;;